Time;durP1;ratioP1;P1;durP2;ratioP2;P2;SDS_P1;SDS_P2;PMS_P1;PMS_P2;Temp;Humidity;BMP_temperature;BMP_pressure;BME280_temperature;BME280_humidity;BME280_pressure;Samples;Min_cycle;Max_cycle;Signal;HPM_P1;HPM_P2
2021/06/13 00:02:05;;;;;;;23.05;10.10;;;;;;;;;;5052306;28;20048;-64
2021/06/13 00:04:50;;;;;;;17.67;8.82;;;;;;;;;;5052292;28;20084;-64
2021/06/13 00:07:35;;;;;;;15.65;8.60;;;;;;;;;;5052217;28;20118;-64
2021/06/13 00:10:20;;;;;;;19.52;8.77;;;;;;;;;;5051943;28;20507;-63
2021/06/13 00:13:06;;;;;;;19.20;8.73;;;;;;;;;;5052117;28;20155;-63
2021/06/13 00:15:51;;;;;;;11.80;7.72;;;;;;;;;;5051980;28;20041;-64
2021/06/13 00:18:37;;;;;;;15.80;7.63;;;;;;;;;;5052056;28;20048;-64
2021/06/13 00:21:22;;;;;;;15.85;8.52;;;;;;;;;;5051856;28;20053;-63
2021/06/13 00:24:08;;;;;;;21.67;9.13;;;;;;;;;;5051860;28;20052;-63
2021/06/13 00:26:53;;;;;;;18.80;9.20;;;;;;;;;;5051628;28;20531;-64
2021/06/13 00:29:38;;;;;;;18.27;9.25;;;;;;;;;;5051674;28;20041;-63
2021/06/13 00:32:24;;;;;;;19.15;9.52;;;;;;;;;;5051870;28;20049;-63
2021/06/13 00:35:09;;;;;;;24.73;8.82;;;;;;;;;;5052073;28;20128;-63
2021/06/13 00:37:54;;;;;;;16.10;8.65;;;;;;;;;;5051831;28;20056;-64
2021/06/13 00:40:40;;;;;;;20.05;9.15;;;;;;;;;;5051563;28;20114;-64
2021/06/13 00:43:26;;;;;;;16.02;8.73;;;;;;;;;;5051958;28;20455;-64
2021/06/13 00:46:12;;;;;;;19.80;8.75;;;;;;;;;;5051817;28;20045;-64
2021/06/13 00:48:57;;;;;;;18.38;9.15;;;;;;;;;;5051729;28;20051;-64
2021/06/13 00:51:43;;;;;;;21.55;10.05;;;;;;;;;;5051548;28;20395;-64
2021/06/13 00:54:29;;;;;;;21.42;9.57;;;;;;;;;;5051652;28;20045;-64
2021/06/13 00:57:15;;;;;;;17.58;9.43;;;;;;;;;;5050562;28;20048;-64
2021/06/13 01:00:00;;;;;;;20.88;9.18;;;;;;;;;;5050552;28;20166;-64
2021/06/13 01:02:45;;;;;;;19.50;9.95;;;;;;;;;;5051674;28;20044;-64
2021/06/13 01:05:31;;;;;;;19.90;9.98;;;;;;;;;;5050588;28;20059;-64
2021/06/13 01:08:35;;;;;;;18.42;10.25;;;;;;;;;;5051430;28;20518;-64
2021/06/13 01:11:23;;;;;;;21.30;9.98;;;;;;;;;;5051291;28;20044;-64
2021/06/13 01:14:20;;;;;;;25.40;10.48;;;;;;;;;;5051451;28;20411;-64
2021/06/13 01:17:25;;;;;;;20.65;9.98;;;;;;;;;;5064448;28;20037;-64
2021/06/13 01:20:27;;;;;;;18.75;10.60;;;;;;;;;;5051169;28;20064;-64
2021/06/13 01:23:25;;;;;;;17.73;10.18;;;;;;;;;;5064574;28;20146;-64
2021/06/13 01:26:17;;;;;;;19.65;11.10;;;;;;;;;;5051176;28;20041;-64
2021/06/13 01:29:08;;;;;;;24.38;10.65;;;;;;;;;;5064473;28;20063;-64
2021/06/13 01:31:55;;;;;;;22.33;9.82;;;;;;;;;;5064311;28;20411;-64
2021/06/13 01:34:45;;;;;;;19.30;8.85;;;;;;;;;;5036559;28;20044;-64
2021/06/13 01:37:36;;;;;;;19.85;9.93;;;;;;;;;;5050189;28;20045;-64
2021/06/13 01:40:22;;;;;;;23.00;10.27;;;;;;;;;;5054570;28;20049;-64
2021/06/13 01:43:07;;;;;;;17.95;10.10;;;;;;;;;;5054909;28;20102;-64
2021/06/13 01:45:54;;;;;;;21.70;11.23;;;;;;;;;;5054944;28;20045;-64
2021/06/13 01:48:40;;;;;;;18.27;10.57;;;;;;;;;;5067676;28;20621;-64
2021/06/13 01:51:26;;;;;;;21.08;10.63;;;;;;;;;;5067220;28;20054;-64
2021/06/13 01:54:12;;;;;;;23.42;10.65;;;;;;;;;;5046192;28;20065;-64
2021/06/13 01:56:58;;;;;;;20.20;9.52;;;;;;;;;;5033406;28;20119;-64
2021/06/13 01:59:53;;;;;;;19.23;10.13;;;;;;;;;;5033382;28;20432;-64
2021/06/13 02:02:39;;;;;;;21.15;10.15;;;;;;;;;;5020148;28;20049;-64
2021/06/13 02:05:25;;;;;;;26.48;11.05;;;;;;;;;;5033618;28;20064;-64
2021/06/13 02:08:12;;;;;;;15.40;10.07;;;;;;;;;;5033417;28;20041;-63
2021/06/13 02:11:05;;;;;;;19.77;10.05;;;;;;;;;;5033188;28;20124;-64
2021/06/13 02:13:50;;;;;;;21.77;10.23;;;;;;;;;;5033197;28;20056;-64
2021/06/13 02:16:42;;;;;;;17.30;9.20;;;;;;;;;;5033187;28;20533;-64
2021/06/13 02:19:29;;;;;;;20.48;10.05;;;;;;;;;;5033154;28;20303;-64
2021/06/13 02:22:22;;;;;;;15.25;9.70;;;;;;;;;;5020394;28;20071;-64
2021/06/13 02:25:10;;;;;;;19.70;10.18;;;;;;;;;;5019604;28;20123;-64
2021/06/13 02:27:59;;;;;;;19.45;10.20;;;;;;;;;;5032931;28;20171;-64
2021/06/13 02:30:50;;;;;;;22.83;9.52;;;;;;;;;;5019683;28;20044;-64
2021/06/13 02:33:39;;;;;;;17.15;10.32;;;;;;;;;;5018222;28;20076;-64
2021/06/13 02:36:26;;;;;;;22.92;10.52;;;;;;;;;;5032509;28;20127;-64
2021/06/13 02:39:20;;;;;;;24.38;11.27;;;;;;;;;;5032874;28;20416;-64
2021/06/13 02:42:07;;;;;;;19.92;10.40;;;;;;;;;;5033053;28;20071;-64
2021/06/13 02:44:56;;;;;;;20.67;10.05;;;;;;;;;;5032922;28;20060;-64
2021/06/13 02:47:42;;;;;;;26.02;11.02;;;;;;;;;;5033734;28;20048;-64
2021/06/13 02:50:28;;;;;;;24.92;11.07;;;;;;;;;;5032623;28;20050;-64
2021/06/13 02:53:14;;;;;;;23.33;10.82;;;;;;;;;;5032796;28;20407;-63
2021/06/13 02:56:17;;;;;;;23.75;11.75;;;;;;;;;;5033559;28;20077;-64
2021/06/13 02:59:16;;;;;;;20.52;10.13;;;;;;;;;;5018853;28;20052;-64
2021/06/13 03:02:05;;;;;;;22.70;10.10;;;;;;;;;;5032549;28;20041;-65
2021/06/13 03:04:52;;;;;;;18.42;9.00;;;;;;;;;;5018819;28;20507;-64
2021/06/13 03:07:38;;;;;;;23.05;9.93;;;;;;;;;;5033345;28;20041;-64
2021/06/13 03:10:25;;;;;;;22.08;11.57;;;;;;;;;;5032144;28;20041;-64
2021/06/13 03:13:11;;;;;;;20.80;10.50;;;;;;;;;;5032311;28;20120;-64
2021/06/13 03:15:58;;;;;;;19.27;11.38;;;;;;;;;;5032185;28;20052;-64
2021/06/13 03:18:45;;;;;;;24.70;11.95;;;;;;;;;;5018585;28;20046;-65
2021/06/13 03:21:30;;;;;;;26.38;12.02;;;;;;;;;;5032819;28;20096;-65
2021/06/13 03:24:18;;;;;;;25.48;11.00;;;;;;;;;;5018580;28;20053;-64
2021/06/13 03:27:03;;;;;;;26.23;12.18;;;;;;;;;;5031892;28;20049;-63
2021/06/13 03:29:50;;;;;;;17.13;10.63;;;;;;;;;;5017865;28;20042;-64
2021/06/13 03:32:39;;;;;;;20.33;10.07;;;;;;;;;;5018815;28;20063;-64
2021/06/13 03:35:24;;;;;;;16.52;9.88;;;;;;;;;;5032764;28;20045;-64
2021/06/13 03:38:10;;;;;;;15.82;9.80;;;;;;;;;;5031786;28;20049;-65
2021/06/13 03:40:55;;;;;;;22.38;10.32;;;;;;;;;;5017864;28;20061;-64
2021/06/13 03:43:41;;;;;;;19.48;9.35;;;;;;;;;;5031735;28;20058;-64
2021/06/13 03:46:27;;;;;;;23.77;10.68;;;;;;;;;;5032581;28;20051;-64
2021/06/13 03:49:12;;;;;;;22.33;11.27;;;;;;;;;;5032612;28;20164;-64
2021/06/13 03:51:58;;;;;;;20.20;10.07;;;;;;;;;;5032581;28;20053;-64
2021/06/13 03:54:43;;;;;;;19.48;8.90;;;;;;;;;;5032470;28;20053;-64
2021/06/13 03:57:28;;;;;;;22.40;10.07;;;;;;;;;;5017753;28;20041;-64
2021/06/13 04:00:14;;;;;;;18.92;9.65;;;;;;;;;;5031292;28;20065;-64
2021/06/13 04:03:01;;;;;;;16.98;10.32;;;;;;;;;;5032054;28;20124;-64
2021/06/13 04:05:51;;;;;;;14.80;8.88;;;;;;;;;;5031589;28;20052;-64
2021/06/13 04:08:36;;;;;;;14.95;8.48;;;;;;;;;;5032513;28;20033;-64
2021/06/13 04:11:22;;;;;;;20.75;10.55;;;;;;;;;;5031097;28;20127;-64
2021/06/13 04:14:07;;;;;;;18.58;10.25;;;;;;;;;;5032460;28;20053;-64
2021/06/13 04:16:52;;;;;;;18.48;10.73;;;;;;;;;;5031438;28;20634;-64
2021/06/13 04:19:38;;;;;;;15.23;8.52;;;;;;;;;;5030977;28;20048;-64
2021/06/13 04:22:23;;;;;;;16.60;10.10;;;;;;;;;;5031457;28;20049;-64
2021/06/13 04:25:09;;;;;;;17.33;10.77;;;;;;;;;;5031318;28;20064;-64
2021/06/13 04:27:55;;;;;;;24.88;11.85;;;;;;;;;;5032119;28;20080;-64
2021/06/13 04:30:41;;;;;;;26.50;13.60;;;;;;;;;;5031104;28;20064;-64
2021/06/13 04:33:26;;;;;;;21.80;12.93;;;;;;;;;;5032257;28;20053;-64
2021/06/13 04:36:12;;;;;;;26.45;12.07;;;;;;;;;;5032027;28;20072;-64
2021/06/13 04:38:57;;;;;;;21.42;11.85;;;;;;;;;;5032334;28;20553;-63
2021/06/13 04:41:43;;;;;;;21.58;12.57;;;;;;;;;;5031085;28;20099;-64
2021/06/13 04:44:29;;;;;;;27.45;13.45;;;;;;;;;;5031995;28;20052;-65
2021/06/13 04:47:15;;;;;;;22.95;12.70;;;;;;;;;;5031975;28;20050;-65
2021/06/13 04:50:00;;;;;;;21.58;11.88;;;;;;;;;;5030611;28;20077;-65
2021/06/13 04:52:46;;;;;;;23.42;12.10;;;;;;;;;;5030755;28;20085;-65
2021/06/13 04:55:44;;;;;;;21.85;12.23;;;;;;;;;;5030958;28;20056;-64
2021/06/13 04:58:30;;;;;;;14.18;8.95;;;;;;;;;;5031793;28;20171;-65
2021/06/13 05:01:15;;;;;;;18.85;11.20;;;;;;;;;;5031430;28;20057;-64
2021/06/13 05:04:00;;;;;;;20.27;11.23;;;;;;;;;;5025746;28;20171;-64
2021/06/13 05:06:46;;;;;;;22.25;10.90;;;;;;;;;;5021076;28;20064;-64
2021/06/13 05:09:32;;;;;;;20.75;10.95;;;;;;;;;;5019454;28;20416;-64
2021/06/13 05:12:17;;;;;;;23.48;11.35;;;;;;;;;;5012011;28;20421;-64
2021/06/13 05:15:02;;;;;;;27.25;9.75;;;;;;;;;;5015001;28;20092;-64
2021/06/13 05:17:48;;;;;;;22.77;11.13;;;;;;;;;;5015566;28;20054;-64
2021/06/13 05:20:33;;;;;;;19.45;10.07;;;;;;;;;;5015500;28;20550;-64
2021/06/13 05:23:19;;;;;;;17.02;9.43;;;;;;;;;;5015663;28;20092;-64
2021/06/13 05:26:05;;;;;;;17.05;9.70;;;;;;;;;;5015313;28;20543;-64
2021/06/13 05:28:50;;;;;;;13.88;8.85;;;;;;;;;;5015643;28;20444;-64
2021/06/13 05:31:36;;;;;;;16.85;9.70;;;;;;;;;;5015219;28;20049;-64
2021/06/13 05:34:21;;;;;;;15.63;9.20;;;;;;;;;;5015328;28;20045;-64
2021/06/13 05:37:06;;;;;;;15.73;9.48;;;;;;;;;;5015280;28;20048;-64
2021/06/13 05:39:52;;;;;;;20.45;9.57;;;;;;;;;;5015150;28;20065;-64
2021/06/13 05:42:37;;;;;;;20.05;9.82;;;;;;;;;;5017879;28;20045;-64
2021/06/13 05:45:24;;;;;;;15.05;8.38;;;;;;;;;;5034926;28;20056;-64
2021/06/13 05:48:09;;;;;;;18.05;9.40;;;;;;;;;;5035015;28;20072;-64
2021/06/13 05:50:54;;;;;;;17.17;8.35;;;;;;;;;;5034655;28;20049;-64
2021/06/13 05:53:41;;;;;;;16.40;7.75;;;;;;;;;;5034739;28;20496;-64
2021/06/13 05:56:26;;;;;;;16.27;7.70;;;;;;;;;;5034758;28;20049;-64
2021/06/13 05:59:12;;;;;;;14.75;7.35;;;;;;;;;;5034331;28;20049;-64
2021/06/13 06:01:57;;;;;;;16.48;7.43;;;;;;;;;;5034579;28;20127;-64
2021/06/13 06:04:42;;;;;;;15.05;6.93;;;;;;;;;;5034631;28;20096;-64
2021/06/13 06:07:28;;;;;;;17.50;7.32;;;;;;;;;;5034472;28;20054;-64
2021/06/13 06:10:13;;;;;;;14.20;7.75;;;;;;;;;;5034348;28;20546;-64
2021/06/13 06:13:04;;;;;;;12.70;7.15;;;;;;;;;;5034327;28;20631;-64
2021/06/13 06:15:50;;;;;;;11.13;6.75;;;;;;;;;;5026858;28;20041;-64
2021/06/13 06:18:35;;;;;;;20.23;7.40;;;;;;;;;;5027704;28;20077;-64
2021/06/13 06:21:21;;;;;;;13.23;7.15;;;;;;;;;;5024784;28;20044;-64
2021/06/13 06:24:06;;;;;;;12.88;6.15;;;;;;;;;;5024632;28;20048;-64
2021/06/13 06:26:52;;;;;;;14.05;6.68;;;;;;;;;;5032604;28;20049;-64
2021/06/13 06:29:37;;;;;;;14.13;6.88;;;;;;;;;;5032896;28;20172;-64
2021/06/13 06:32:22;;;;;;;18.88;8.18;;;;;;;;;;5033160;28;20060;-64
2021/06/13 06:35:08;;;;;;;15.07;6.93;;;;;;;;;;5033925;28;20056;-64
2021/06/13 06:37:53;;;;;;;15.23;7.18;;;;;;;;;;5034058;28;20087;-64
2021/06/13 06:40:38;;;;;;;12.98;6.13;;;;;;;;;;5073689;23;20053;-62
2021/06/13 06:43:24;;;;;;;12.60;6.35;;;;;;;;;;5032770;28;20073;-63
2021/06/13 06:46:09;;;;;;;15.60;6.15;;;;;;;;;;5033868;28;20056;-63
2021/06/13 06:48:54;;;;;;;11.85;5.78;;;;;;;;;;5046967;28;20061;-62
2021/06/13 06:51:39;;;;;;;16.30;5.68;;;;;;;;;;5031238;28;20041;-62
2021/06/13 06:54:25;;;;;;;16.05;6.35;;;;;;;;;;5023414;28;20046;-63
2021/06/13 06:57:11;;;;;;;10.10;6.00;;;;;;;;;;5024166;28;20040;-63
2021/06/13 06:59:56;;;;;;;10.25;5.10;;;;;;;;;;5020391;28;20443;-62
2021/06/13 07:02:42;;;;;;;12.65;5.47;;;;;;;;;;5030965;28;20052;-63
2021/06/13 07:05:27;;;;;;;11.45;5.35;;;;;;;;;;5037023;28;20517;-62
2021/06/13 07:08:12;;;;;;;12.27;5.60;;;;;;;;;;5033350;28;20079;-62
2021/06/13 07:10:58;;;;;;;9.57;5.20;;;;;;;;;;5027195;28;20057;-62
2021/06/13 07:13:43;;;;;;;8.65;5.05;;;;;;;;;;5022577;28;20053;-62
2021/06/13 07:16:28;;;;;;;8.35;4.45;;;;;;;;;;5023698;28;20056;-63
2021/06/13 07:19:14;;;;;;;10.15;5.07;;;;;;;;;;5022584;28;20623;-62
2021/06/13 07:21:59;;;;;;;10.35;3.88;;;;;;;;;;5022930;28;20049;-63
2021/06/13 07:24:45;;;;;;;11.93;5.32;;;;;;;;;;5025519;28;20049;-63
2021/06/13 07:27:30;;;;;;;10.50;5.60;;;;;;;;;;5028252;28;20056;-63
2021/06/13 07:30:16;;;;;;;9.38;5.75;;;;;;;;;;5022517;28;20119;-62
2021/06/13 07:33:04;;;;;;;8.63;4.15;;;;;;;;;;5025888;28;20052;-63
2021/06/13 07:35:50;;;;;;;7.95;3.85;;;;;;;;;;5018003;28;20118;-63
2021/06/13 07:38:35;;;;;;;10.52;4.50;;;;;;;;;;5016746;28;20140;-63
2021/06/13 07:41:20;;;;;;;7.95;3.90;;;;;;;;;;5024006;28;20419;-63
2021/06/13 07:44:06;;;;;;;8.63;3.75;;;;;;;;;;5025625;28;20096;-63
2021/06/13 07:46:51;;;;;;;8.07;3.40;;;;;;;;;;5021860;28;20123;-62
2021/06/13 07:49:36;;;;;;;16.85;5.30;;;;;;;;;;5023005;28;20044;-63
2021/06/13 07:52:21;;;;;;;10.95;4.95;;;;;;;;;;5024381;28;20100;-63
2021/06/13 07:55:08;;;;;;;10.40;3.88;;;;;;;;;;5022979;28;20038;-62
2021/06/13 07:57:53;;;;;;;10.10;4.63;;;;;;;;;;5019207;28;20420;-62
2021/06/13 08:00:39;;;;;;;9.63;4.10;;;;;;;;;;4992962;28;20053;-62
2021/06/13 08:03:24;;;;;;;6.57;3.00;;;;;;;;;;4992974;28;20070;-62
2021/06/13 08:06:10;;;;;;;7.38;3.72;;;;;;;;;;4992621;28;20056;-63
2021/06/13 08:08:55;;;;;;;7.32;3.60;;;;;;;;;;4991805;28;20177;-62
2021/06/13 08:11:40;;;;;;;11.82;3.95;;;;;;;;;;4992612;28;20052;-62
2021/06/13 08:14:26;;;;;;;5.38;3.83;;;;;;;;;;4992577;28;20049;-62
2021/06/13 08:17:11;;;;;;;9.70;4.22;;;;;;;;;;4992537;28;20515;-62
2021/06/13 08:19:56;;;;;;;9.65;4.28;;;;;;;;;;4992469;28;20056;-63
2021/06/13 08:22:42;;;;;;;7.40;4.07;;;;;;;;;;4992736;28;20083;-63
2021/06/13 08:25:27;;;;;;;9.27;4.18;;;;;;;;;;4993224;28;20061;-64
2021/06/13 08:28:12;;;;;;;9.77;4.78;;;;;;;;;;4992441;28;20053;-63
2021/06/13 08:30:58;;;;;;;9.88;4.40;;;;;;;;;;4992294;28;20523;-63
2021/06/13 08:33:43;;;;;;;8.32;3.92;;;;;;;;;;4992468;28;20508;-64
2021/06/13 08:36:28;;;;;;;8.63;3.83;;;;;;;;;;4993224;28;20193;-63
2021/06/13 08:39:14;;;;;;;8.13;3.97;;;;;;;;;;4992596;28;20046;-63
2021/06/13 08:41:59;;;;;;;8.60;4.05;;;;;;;;;;4992213;28;20414;-63
2021/06/13 08:44:44;;;;;;;9.90;4.30;;;;;;;;;;4992458;28;20053;-63
2021/06/13 08:47:30;;;;;;;8.50;3.97;;;;;;;;;;4993301;28;20057;-63
2021/06/13 08:50:15;;;;;;;9.80;4.10;;;;;;;;;;4996175;28;20520;-63
2021/06/13 08:53:00;;;;;;;7.95;3.70;;;;;;;;;;4996182;28;20069;-63
2021/06/13 08:55:46;;;;;;;11.05;3.67;;;;;;;;;;4996441;28;20047;-63
2021/06/13 08:58:31;;;;;;;7.95;4.07;;;;;;;;;;5003578;28;20048;-63
2021/06/13 09:01:17;;;;;;;8.32;4.25;;;;;;;;;;5015266;28;20046;-63
2021/06/13 09:04:02;;;;;;;8.15;3.90;;;;;;;;;;5015158;28;20038;-64
2021/06/13 09:06:50;;;;;;;8.07;4.25;;;;;;;;;;5013363;28;20133;-64
2021/06/13 09:09:35;;;;;;;9.50;4.65;;;;;;;;;;5014465;28;20077;-64
2021/06/13 09:12:21;;;;;;;9.15;3.83;;;;;;;;;;5014685;28;20053;-64
2021/06/13 09:15:07;;;;;;;9.15;3.42;;;;;;;;;;5016821;28;20045;-64
2021/06/13 09:17:52;;;;;;;6.10;3.65;;;;;;;;;;5017395;28;20052;-64
2021/06/13 09:20:43;;;;;;;8.65;4.28;;;;;;;;;;5015577;28;20049;-64
2021/06/13 09:23:29;;;;;;;8.70;3.67;;;;;;;;;;5015703;28;20408;-64
2021/06/13 09:26:17;;;;;;;8.23;3.90;;;;;;;;;;5015746;28;20052;-64
2021/06/13 09:29:02;;;;;;;4.90;2.90;;;;;;;;;;5017124;28;20052;-64
2021/06/13 09:31:48;;;;;;;7.53;4.03;;;;;;;;;;5017666;28;20416;-64
2021/06/13 09:34:33;;;;;;;6.47;3.38;;;;;;;;;;5016002;28;20053;-64
2021/06/13 09:37:18;;;;;;;9.38;4.20;;;;;;;;;;5015378;28;20562;-64
2021/06/13 09:40:10;;;;;;;8.30;3.75;;;;;;;;;;5014898;28;20177;-64
2021/06/13 09:42:55;;;;;;;6.97;3.33;;;;;;;;;;5015416;28;20049;-63
2021/06/13 09:45:45;;;;;;;9.85;3.97;;;;;;;;;;5015369;28;20052;-64
2021/06/13 09:48:31;;;;;;;7.18;3.58;;;;;;;;;;5015171;28;20463;-63
2021/06/13 09:51:20;;;;;;;6.63;3.33;;;;;;;;;;5014879;28;20050;-63
2021/06/13 09:54:06;;;;;;;6.10;2.97;;;;;;;;;;5008335;28;20068;-63
2021/06/13 09:56:53;;;;;;;8.15;5.10;;;;;;;;;;4995190;28;20058;-64
2021/06/13 09:59:38;;;;;;;8.32;3.88;;;;;;;;;;4994350;28;20043;-63
2021/06/13 10:02:30;;;;;;;8.93;3.50;;;;;;;;;;4995290;28;20412;-63
2021/06/13 10:05:16;;;;;;;;;;;;;;;;;;4995566;28;20727;-63
2021/06/13 10:08:16;;;;;;;8.15;3.15;;;;;;;;;;4995039;28;20388;-64
2021/06/13 10:11:02;;;;;;;6.57;3.83;;;;;;;;;;4994758;28;20524;-64
2021/06/13 10:13:48;;;;;;;11.75;4.25;;;;;;;;;;4995683;28;20103;-64
2021/06/13 10:16:34;;;;;;;6.72;3.72;;;;;;;;;;4995317;28;20136;-64
2021/06/13 10:19:23;;;;;;;8.18;3.10;;;;;;;;;;4994765;28;20053;-64
2021/06/13 10:22:09;;;;;;;8.05;3.63;;;;;;;;;;4994698;28;20149;-64
2021/06/13 10:24:54;;;;;;;6.47;2.90;;;;;;;;;;4993961;28;20056;-64
2021/06/13 10:27:39;;;;;;;8.63;4.03;;;;;;;;;;4994241;28;20053;-64
2021/06/13 10:30:25;;;;;;;7.07;3.38;;;;;;;;;;4992234;28;20057;-64
2021/06/13 10:33:10;;;;;;;9.07;3.63;;;;;;;;;;4994460;28;20488;-64
2021/06/13 10:35:59;;;;;;;9.88;3.35;;;;;;;;;;5009560;28;20053;-64
2021/06/13 10:38:44;;;;;;;9.45;3.97;;;;;;;;;;5006715;28;20615;-64
2021/06/13 10:41:30;;;;;;;9.32;3.55;;;;;;;;;;5007767;28;20069;-64
2021/06/13 10:44:16;;;;;;;8.93;3.83;;;;;;;;;;5011143;28;20065;-63
2021/06/13 10:47:15;;;;;;;7.93;4.13;;;;;;;;;;5011238;28;20050;-64
2021/06/13 10:50:01;;;;;;;4.85;2.90;;;;;;;;;;5010694;28;20048;-64
2021/06/13 10:53:00;;;;;;;7.25;3.88;;;;;;;;;;5010359;28;20129;-64
2021/06/13 10:55:52;;;;;;;10.07;4.72;;;;;;;;;;5010225;28;20060;-63
2021/06/13 10:58:47;;;;;;;7.00;3.65;;;;;;;;;;5010829;28;20492;-64
2021/06/13 11:01:35;;;;;;;7.40;3.22;;;;;;;;;;5010988;28;20082;-61
2021/06/13 11:04:20;;;;;;;5.13;3.50;;;;;;;;;;5011565;28;20053;-64
2021/06/13 11:07:05;;;;;;;9.55;3.90;;;;;;;;;;4996941;28;20056;-64
2021/06/13 11:10:06;;;;;;;10.65;3.58;;;;;;;;;;5010527;28;20507;-62
2021/06/13 11:13:01;;;;;;;7.00;3.28;;;;;;;;;;5009806;28;20137;-63
2021/06/13 11:15:50;;;;;;;6.53;3.60;;;;;;;;;;5010413;28;20057;-64
2021/06/13 11:18:37;;;;;;;7.35;3.65;;;;;;;;;;5011557;28;20053;-61
2021/06/13 11:21:22;;;;;;;9.43;3.30;;;;;;;;;;5010210;28;20474;-63
2021/06/13 11:24:08;;;;;;;8.18;3.90;;;;;;;;;;4991654;28;20512;-63
2021/06/13 11:27:03;;;;;;;7.10;3.10;;;;;;;;;;4990151;28;20057;-64
2021/06/13 11:29:51;;;;;;;6.78;3.75;;;;;;;;;;4990395;28;20716;-64
2021/06/13 11:32:49;;;;;;;9.50;3.53;;;;;;;;;;4990774;28;20526;-64
2021/06/13 11:35:35;;;;;;;6.28;3.13;;;;;;;;;;4990738;28;20682;-64
2021/06/13 11:38:20;;;;;;;7.72;3.33;;;;;;;;;;4985961;28;20127;-64
2021/06/13 11:41:06;;;;;;;7.57;3.97;;;;;;;;;;4989709;28;20811;-64
2021/06/13 11:43:51;;;;;;;8.57;3.35;;;;;;;;;;4990315;28;20045;-64
2021/06/13 11:46:46;;;;;;;6.00;3.33;;;;;;;;;;4990291;28;20523;-64
2021/06/13 11:49:45;;;;;;;5.95;3.30;;;;;;;;;;4990414;28;20057;-64
2021/06/13 11:52:49;;;;;;;6.10;3.88;;;;;;;;;;4998727;28;20053;-64
2021/06/13 11:55:53;;;;;;;7.20;3.50;;;;;;;;;;5008969;28;20048;-64
2021/06/13 11:58:38;;;;;;;4.75;3.00;;;;;;;;;;5009759;28;20034;-64
2021/06/13 12:01:23;;;;;;;7.57;3.50;;;;;;;;;;4990146;28;20117;-64
2021/06/13 12:04:11;;;;;;;5.97;3.63;;;;;;;;;;4990622;28;20409;-64
2021/06/13 12:06:57;;;;;;;5.65;2.90;;;;;;;;;;5003341;28;20046;-64
2021/06/13 12:09:42;;;;;;;4.80;3.13;;;;;;;;;;4989348;28;20058;-63
2021/06/13 12:12:28;;;;;;;6.07;3.65;;;;;;;;;;4989090;28;20161;-63
2021/06/13 12:15:15;;;;;;;4.47;2.90;;;;;;;;;;4990416;28;20044;-64
2021/06/13 12:18:02;;;;;;;7.57;3.35;;;;;;;;;;4990448;28;20108;-64
2021/06/13 12:20:55;;;;;;;6.10;3.35;;;;;;;;;;5001983;28;20616;-64
2021/06/13 12:23:50;;;;;;;7.13;3.40;;;;;;;;;;5006929;28;20571;-64
2021/06/13 12:29:41;;;;;;;6.93;3.42;;;;;;;;;;5006347;28;20049;-64
2021/06/13 12:32:27;;;;;;;6.45;3.25;;;;;;;;;;5008175;28;20046;-64
2021/06/13 12:35:16;;;;;;;4.18;2.88;;;;;;;;;;5009423;28;20046;-64
2021/06/13 12:38:03;;;;;;;4.65;3.03;;;;;;;;;;5009306;28;20057;-63
2021/06/13 12:40:49;;;;;;;6.63;3.90;;;;;;;;;;5008241;28;20057;-63
2021/06/13 12:43:38;;;;;;;9.48;2.90;;;;;;;;;;5041296;23;20051;-64
2021/06/13 12:46:24;;;;;;;6.03;3.13;;;;;;;;;;4988608;28;20135;-64
2021/06/13 12:49:09;;;;;;;5.53;3.30;;;;;;;;;;4991206;28;20060;-64
2021/06/13 12:51:54;;;;;;;6.05;3.10;;;;;;;;;;4974039;28;20050;-64
2021/06/13 12:54:40;;;;;;;6.63;3.03;;;;;;;;;;4969823;28;20034;-63
2021/06/13 12:57:25;;;;;;;5.88;2.53;;;;;;;;;;4968723;28;20058;-63
2021/06/13 13:00:11;;;;;;;6.97;3.17;;;;;;;;;;4968996;28;20054;-64
2021/06/13 13:03:06;;;;;;;5.47;2.92;;;;;;;;;;4969802;28;20070;-64
2021/06/13 13:06:05;;;;;;;6.43;2.95;;;;;;;;;;4970435;28;20068;-64
2021/06/13 13:08:50;;;;;;;5.90;2.70;;;;;;;;;;4969016;28;20535;-64
2021/06/13 13:11:41;;;;;;;5.60;2.75;;;;;;;;;;4968234;28;20056;-64
2021/06/13 13:14:26;;;;;;;6.18;2.97;;;;;;;;;;4970316;28;20055;-64
2021/06/13 13:17:12;;;;;;;3.75;2.65;;;;;;;;;;4969889;28;20057;-64
2021/06/13 13:19:57;;;;;;;6.70;3.28;;;;;;;;;;4969944;28;20134;-64
2021/06/13 13:22:43;;;;;;;6.47;2.80;;;;;;;;;;4969685;28;20073;-63
2021/06/13 13:25:29;;;;;;;5.72;2.72;;;;;;;;;;4970425;28;20174;-64
2021/06/13 13:28:30;;;;;;;5.72;2.97;;;;;;;;;;4970555;28;20047;-64
2021/06/13 13:31:25;;;;;;;4.82;2.78;;;;;;;;;;4970634;28;20049;-64
2021/06/13 13:34:10;;;;;;;4.95;2.92;;;;;;;;;;4970069;28;20573;-64
2021/06/13 13:37:04;;;;;;;5.38;2.47;;;;;;;;;;4973277;28;20563;-64
2021/06/13 13:40:07;;;;;;;6.25;2.97;;;;;;;;;;4973295;28;20587;-64
2021/06/13 13:42:55;;;;;;;5.38;2.83;;;;;;;;;;4991312;28;20081;-64
2021/06/13 13:45:41;;;;;;;8.07;2.97;;;;;;;;;;4993051;28;20093;-64
2021/06/13 13:48:28;;;;;;;5.55;2.97;;;;;;;;;;4992515;28;20628;-64
2021/06/13 13:51:13;;;;;;;5.28;2.90;;;;;;;;;;4992077;28;20140;-64
2021/06/13 13:53:58;;;;;;;5.55;3.05;;;;;;;;;;4992340;28;20057;-64
2021/06/13 13:56:49;;;;;;;6.65;3.40;;;;;;;;;;4992159;28;20420;-65
2021/06/13 13:59:38;;;;;;;5.45;3.03;;;;;;;;;;4992661;28;20128;-64
2021/06/13 14:02:24;;;;;;;5.25;2.53;;;;;;;;;;4992978;28;20042;-64
2021/06/13 14:05:09;;;;;;;5.18;2.80;;;;;;;;;;4993194;28;20508;-64
2021/06/13 14:07:55;;;;;;;6.00;3.25;;;;;;;;;;4993480;28;20062;-64
2021/06/13 14:10:40;;;;;;;6.78;2.75;;;;;;;;;;4979328;28;20062;-64
2021/06/13 14:13:25;;;;;;;5.30;2.88;;;;;;;;;;4975216;28;20528;-64
2021/06/13 14:16:11;;;;;;;5.78;2.78;;;;;;;;;;4973763;28;20047;-64
2021/06/13 14:18:56;;;;;;;5.78;2.63;;;;;;;;;;4973544;28;20055;-64
2021/06/13 14:21:41;;;;;;;7.03;2.95;;;;;;;;;;4972730;28;20046;-64
2021/06/13 14:24:26;;;;;;;5.88;2.78;;;;;;;;;;4972892;28;20402;-64
2021/06/13 14:27:11;;;;;;;4.70;2.45;;;;;;;;;;4968809;28;20054;-65
2021/06/13 14:29:57;;;;;;;6.63;2.35;;;;;;;;;;4976040;28;20051;-65
2021/06/13 14:32:42;;;;;;;4.90;2.50;;;;;;;;;;4978363;28;20104;-65
2021/06/13 14:35:27;;;;;;;6.75;2.72;;;;;;;;;;4978410;28;20204;-64
2021/06/13 14:38:12;;;;;;;4.25;2.40;;;;;;;;;;4982536;28;20046;-64
2021/06/13 14:40:58;;;;;;;5.32;2.53;;;;;;;;;;4989161;28;20045;-64
2021/06/13 14:43:43;;;;;;;7.40;2.42;;;;;;;;;;4991603;28;20189;-64
2021/06/13 14:46:28;;;;;;;4.40;2.38;;;;;;;;;;4991835;28;20128;-64
2021/06/13 14:49:14;;;;;;;5.30;2.65;;;;;;;;;;4992592;28;20046;-64
2021/06/13 14:51:59;;;;;;;4.63;2.40;;;;;;;;;;4992556;28;20049;-64
2021/06/13 14:54:44;;;;;;;5.07;2.55;;;;;;;;;;4991627;28;20057;-64
2021/06/13 14:57:29;;;;;;;3.65;2.38;;;;;;;;;;4991771;28;20439;-63
2021/06/13 15:00:15;;;;;;;4.95;2.58;;;;;;;;;;4992066;28;20053;-64
2021/06/13 15:03:01;;;;;;;5.05;2.05;;;;;;;;;;4992165;28;20489;-64
2021/06/13 15:05:47;;;;;;;5.28;2.38;;;;;;;;;;4991509;28;20057;-64
2021/06/13 15:08:32;;;;;;;3.63;1.88;;;;;;;;;;4991598;28;20126;-64
2021/06/13 15:11:17;;;;;;;5.43;1.77;;;;;;;;;;4990690;28;20045;-64
2021/06/13 15:14:03;;;;;;;3.78;2.10;;;;;;;;;;4991876;28;20528;-64
2021/06/13 15:16:48;;;;;;;3.38;2.40;;;;;;;;;;4991625;28;20057;-63
2021/06/13 15:19:35;;;;;;;5.50;2.30;;;;;;;;;;4990991;28;20054;-63
2021/06/13 15:22:21;;;;;;;3.30;2.00;;;;;;;;;;4991985;28;20069;-64
2021/06/13 15:25:06;;;;;;;6.70;2.65;;;;;;;;;;4970943;28;20498;-64
2021/06/13 15:27:51;;;;;;;6.20;2.40;;;;;;;;;;4967781;28;20497;-63
2021/06/13 15:30:38;;;;;;;3.95;2.00;;;;;;;;;;4971274;28;20580;-63
2021/06/13 15:33:23;;;;;;;3.90;2.08;;;;;;;;;;4971971;28;20050;-64
2021/06/13 15:36:08;;;;;;;2.92;1.80;;;;;;;;;;4971842;28;20062;-64
2021/06/13 15:38:54;;;;;;;6.22;2.35;;;;;;;;;;4970784;28;20058;-63
2021/06/13 15:41:39;;;;;;;4.35;2.47;;;;;;;;;;4979606;28;20053;-63
2021/06/13 15:44:25;;;;;;;4.55;2.00;;;;;;;;;;4990517;28;20042;-64
2021/06/13 15:47:10;;;;;;;4.47;2.15;;;;;;;;;;4991122;28;20054;-63
2021/06/13 15:49:57;;;;;;;4.25;2.20;;;;;;;;;;4991412;28;20160;-63
2021/06/13 15:52:43;;;;;;;5.40;2.42;;;;;;;;;;4990691;28;20104;-63
2021/06/13 15:55:51;;;;;;;5.47;1.88;;;;;;;;;;4990284;28;20061;-63
2021/06/13 15:58:35;;;;;;;3.47;2.10;;;;;;;;;;4990256;28;20108;-63
2021/06/13 16:01:20;;;;;;;5.78;2.38;;;;;;;;;;4990941;28;20420;-63
2021/06/13 16:04:06;;;;;;;5.22;1.95;;;;;;;;;;4991376;28;20054;-63
2021/06/13 16:06:55;;;;;;;6.55;2.40;;;;;;;;;;4990987;28;20061;-63
2021/06/13 16:09:40;;;;;;;5.25;2.50;;;;;;;;;;4990005;28;20052;-63
2021/06/13 16:12:26;;;;;;;5.00;2.13;;;;;;;;;;4975951;28;20053;-63
2021/06/13 16:15:18;;;;;;;6.80;2.53;;;;;;;;;;4971603;28;20158;-63
2021/06/13 16:18:04;;;;;;;5.22;2.47;;;;;;;;;;4971493;28;20050;-63
2021/06/13 16:20:49;;;;;;;5.68;2.38;;;;;;;;;;4971141;28;20055;-63
2021/06/13 16:23:34;;;;;;;3.38;2.10;;;;;;;;;;4971070;28;20054;-63
2021/06/13 16:26:20;;;;;;;6.13;2.47;;;;;;;;;;4965571;28;20232;-63
2021/06/13 16:29:05;;;;;;;7.25;2.67;;;;;;;;;;4970534;28;20385;-63
2021/06/13 16:31:50;;;;;;;6.50;2.53;;;;;;;;;;4969975;28;20073;-63
2021/06/13 16:34:36;;;;;;;6.25;2.80;;;;;;;;;;4969415;28;20121;-63